sensor_id;sensor_type;location;lat;lon;timestamp;temperature;humidity
28530;DHT22;15737;49.760;6.632;2023-12-28T00:01:36;8.50;99.90
28530;DHT22;15737;49.760;6.632;2023-12-28T00:04:01;8.50;99.90
28530;DHT22;15737;49.760;6.632;2023-12-28T00:06:27;8.50;99.90
28530;DHT22;15737;49.760;6.632;2023-12-28T00:08:52;8.50;99.90
28530;DHT22;15737;49.760;6.632;2023-12-28T00:11:18;8.50;99.90
28530;DHT22;15737;49.760;6.632;2023-12-28T00:13:43;8.50;99.90
28530;DHT22;15737;49.760;6.632;2023-12-28T00:16:09;8.50;99.90
28530;DHT22;15737;49.760;6.632;2023-12-28T00:18:35;8.50;99.90
28530;DHT22;15737;49.760;6.632;2023-12-28T00:21:00;8.50;99.90
28530;DHT22;15737;49.760;6.632;2023-12-28T00:23:26;8.50;99.90
28530;DHT22;15737;49.760;6.632;2023-12-28T00:25:51;8.50;99.90
28530;DHT22;15737;49.760;6.632;2023-12-28T00:28:17;8.40;99.90
28530;DHT22;15737;49.760;6.632;2023-12-28T00:30:42;8.40;99.90
28530;DHT22;15737;49.760;6.632;2023-12-28T00:33:08;8.40;99.90
28530;DHT22;15737;49.760;6.632;2023-12-28T00:35:34;8.40;99.90
28530;DHT22;15737;49.760;6.632;2023-12-28T00:37:59;8.40;99.90
28530;DHT22;15737;49.760;6.632;2023-12-28T00:40:25;8.30;99.90
28530;DHT22;15737;49.760;6.632;2023-12-28T00:42:50;8.20;99.90
28530;DHT22;15737;49.760;6.632;2023-12-28T00:45:16;8.10;99.90
28530;DHT22;15737;49.760;6.632;2023-12-28T00:47:41;8.00;99.90
28530;DHT22;15737;49.760;6.632;2023-12-28T00:50:08;7.80;99.90
28530;DHT22;15737;49.760;6.632;2023-12-28T00:52:36;7.70;99.90
28530;DHT22;15737;49.760;6.632;2023-12-28T00:55:02;7.70;99.90
28530;DHT22;15737;49.760;6.632;2023-12-28T00:57:36;7.70;99.90
28530;DHT22;15737;49.760;6.632;2023-12-28T01:00:02;7.70;99.90
28530;DHT22;15737;49.760;6.632;2023-12-28T01:02:28;7.80;99.90
28530;DHT22;15737;49.760;6.632;2023-12-28T01:04:53;7.80;99.90
28530;DHT22;15737;49.760;6.632;2023-12-28T01:07:19;7.90;99.90
28530;DHT22;15737;49.760;6.632;2023-12-28T01:09:44;7.90;99.90
28530;DHT22;15737;49.760;6.632;2023-12-28T01:12:10;8.00;99.90
28530;DHT22;15737;49.760;6.632;2023-12-28T01:14:35;8.00;99.90
28530;DHT22;15737;49.760;6.632;2023-12-28T01:17:01;7.90;99.90
28530;DHT22;15737;49.760;6.632;2023-12-28T01:19:27;7.70;99.90
28530;DHT22;15737;49.760;6.632;2023-12-28T01:21:52;7.50;99.90
28530;DHT22;15737;49.760;6.632;2023-12-28T01:24:17;7.30;99.90
28530;DHT22;15737;49.760;6.632;2023-12-28T01:26:43;7.20;99.90
28530;DHT22;15737;49.760;6.632;2023-12-28T01:29:09;7.10;99.90
28530;DHT22;15737;49.760;6.632;2023-12-28T01:31:34;7.10;99.90
28530;DHT22;15737;49.760;6.632;2023-12-28T01:34:00;7.10;99.90
28530;DHT22;15737;49.760;6.632;2023-12-28T01:36:31;7.10;99.90
28530;DHT22;15737;49.760;6.632;2023-12-28T01:38:57;7.10;99.90
28530;DHT22;15737;49.760;6.632;2023-12-28T01:41:22;7.10;99.90
28530;DHT22;15737;49.760;6.632;2023-12-28T01:43:48;7.00;99.90
28530;DHT22;15737;49.760;6.632;2023-12-28T01:46:16;6.90;99.90
28530;DHT22;15737;49.760;6.632;2023-12-28T01:48:43;6.80;99.90
28530;DHT22;15737;49.760;6.632;2023-12-28T01:51:10;6.70;99.90
28530;DHT22;15737;49.760;6.632;2023-12-28T01:53:36;6.60;99.90
28530;DHT22;15737;49.760;6.632;2023-12-28T01:56:02;6.60;99.90
28530;DHT22;15737;49.760;6.632;2023-12-28T01:58:28;6.50;99.90
28530;DHT22;15737;49.760;6.632;2023-12-28T02:00:57;6.50;99.90
28530;DHT22;15737;49.760;6.632;2023-12-28T02:03:26;6.50;99.90
28530;DHT22;15737;49.760;6.632;2023-12-28T02:05:52;6.40;99.90
28530;DHT22;15737;49.760;6.632;2023-12-28T02:08:17;6.40;99.90
28530;DHT22;15737;49.760;6.632;2023-12-28T02:10:43;6.40;99.90
28530;DHT22;15737;49.760;6.632;2023-12-28T02:13:09;6.40;99.90
28530;DHT22;15737;49.760;6.632;2023-12-28T02:15:34;6.40;99.90
28530;DHT22;15737;49.760;6.632;2023-12-28T02:18:07;6.50;99.90
28530;DHT22;15737;49.760;6.632;2023-12-28T02:20:36;6.50;99.90
28530;DHT22;15737;49.760;6.632;2023-12-28T02:23:03;6.50;99.90
28530;DHT22;15737;49.760;6.632;2023-12-28T02:25:29;6.50;99.90
28530;DHT22;15737;49.760;6.632;2023-12-28T02:27:55;6.50;99.90
28530;DHT22;15737;49.760;6.632;2023-12-28T02:30:22;6.60;99.90
28530;DHT22;15737;49.760;6.632;2023-12-28T02:35:57;6.60;99.90
28530;DHT22;15737;49.760;6.632;2023-12-28T02:38:24;6.70;99.90
28530;DHT22;15737;49.760;6.632;2023-12-28T02:40:51;6.70;99.90
28530;DHT22;15737;49.760;6.632;2023-12-28T02:45:42;6.70;99.90
28530;DHT22;15737;49.760;6.632;2023-12-28T02:48:14;6.70;99.90
28530;DHT22;15737;49.760;6.632;2023-12-28T02:50:43;6.70;99.90
28530;DHT22;15737;49.760;6.632;2023-12-28T02:53:09;6.70;99.90
28530;DHT22;15737;49.760;6.632;2023-12-28T02:55:34;6.80;99.90
28530;DHT22;15737;49.760;6.632;2023-12-28T02:58:00;6.80;99.90
28530;DHT22;15737;49.760;6.632;2023-12-28T03:00:26;6.80;99.90
28530;DHT22;15737;49.760;6.632;2023-12-28T03:02:51;6.80;99.90
28530;DHT22;15737;49.760;6.632;2023-12-28T03:05:17;6.80;99.90
28530;DHT22;15737;49.760;6.632;2023-12-28T03:07:43;6.80;99.90
28530;DHT22;15737;49.760;6.632;2023-12-28T03:10:09;6.80;99.90
28530;DHT22;15737;49.760;6.632;2023-12-28T03:12:36;6.80;99.90
28530;DHT22;15737;49.760;6.632;2023-12-28T03:15:03;6.80;99.90
28530;DHT22;15737;49.760;6.632;2023-12-28T03:17:28;6.90;99.90
28530;DHT22;15737;49.760;6.632;2023-12-28T03:19:56;6.90;99.90
28530;DHT22;15737;49.760;6.632;2023-12-28T03:22:22;6.90;99.90
28530;DHT22;15737;49.760;6.632;2023-12-28T03:24:47;6.90;99.90
28530;DHT22;15737;49.760;6.632;2023-12-28T03:29:43;6.90;99.90
28530;DHT22;15737;49.760;6.632;2023-12-28T03:32:09;7.00;99.90
28530;DHT22;15737;49.760;6.632;2023-12-28T03:34:35;6.90;99.90
28530;DHT22;15737;49.760;6.632;2023-12-28T03:37:01;7.00;99.90
28530;DHT22;15737;49.760;6.632;2023-12-28T03:39:26;7.00;99.90
28530;DHT22;15737;49.760;6.632;2023-12-28T03:41:55;7.00;99.90
28530;DHT22;15737;49.760;6.632;2023-12-28T03:44:21;7.00;99.90
28530;DHT22;15737;49.760;6.632;2023-12-28T03:46:50;7.00;99.90
28530;DHT22;15737;49.760;6.632;2023-12-28T03:49:17;7.00;99.90
28530;DHT22;15737;49.760;6.632;2023-12-28T03:51:43;7.10;99.90
28530;DHT22;15737;49.760;6.632;2023-12-28T03:56:41;7.10;99.90
28530;DHT22;15737;49.760;6.632;2023-12-28T03:59:08;7.20;99.90
28530;DHT22;15737;49.760;6.632;2023-12-28T04:01:34;7.20;99.90
28530;DHT22;15737;49.760;6.632;2023-12-28T04:03:59;7.20;99.90
28530;DHT22;15737;49.760;6.632;2023-12-28T04:06:25;7.30;99.90
28530;DHT22;15737;49.760;6.632;2023-12-28T04:08:50;7.30;99.90
28530;DHT22;15737;49.760;6.632;2023-12-28T04:11:30;7.30;99.90
28530;DHT22;15737;49.760;6.632;2023-12-28T04:13:56;7.40;99.90
28530;DHT22;15737;49.760;6.632;2023-12-28T04:16:21;7.50;99.90
28530;DHT22;15737;49.760;6.632;2023-12-28T04:18:47;7.50;99.90
28530;DHT22;15737;49.760;6.632;2023-12-28T04:21:13;7.60;99.90
28530;DHT22;15737;49.760;6.632;2023-12-28T04:23:40;7.60;99.90
28530;DHT22;15737;49.760;6.632;2023-12-28T04:26:06;7.60;99.90
28530;DHT22;15737;49.760;6.632;2023-12-28T04:28:32;7.70;99.90
28530;DHT22;15737;49.760;6.632;2023-12-28T04:31:02;7.70;99.90
28530;DHT22;15737;49.760;6.632;2023-12-28T04:33:28;7.80;99.90
28530;DHT22;15737;49.760;6.632;2023-12-28T04:35:53;7.90;99.90
28530;DHT22;15737;49.760;6.632;2023-12-28T04:38:19;7.90;99.90
28530;DHT22;15737;49.760;6.632;2023-12-28T04:40:44;8.00;99.90
28530;DHT22;15737;49.760;6.632;2023-12-28T04:43:10;8.00;99.90
28530;DHT22;15737;49.760;6.632;2023-12-28T04:45:35;8.00;99.90
28530;DHT22;15737;49.760;6.632;2023-12-28T04:48:01;8.00;99.90
28530;DHT22;15737;49.760;6.632;2023-12-28T04:50:26;8.10;99.90
28530;DHT22;15737;49.760;6.632;2023-12-28T04:52:51;8.10;99.90
28530;DHT22;15737;49.760;6.632;2023-12-28T04:55:17;8.20;99.90
28530;DHT22;15737;49.760;6.632;2023-12-28T04:57:42;8.20;99.90
28530;DHT22;15737;49.760;6.632;2023-12-28T05:00:08;8.20;99.90
28530;DHT22;15737;49.760;6.632;2023-12-28T05:02:34;8.30;99.90
28530;DHT22;15737;49.760;6.632;2023-12-28T05:05:00;8.30;99.90
28530;DHT22;15737;49.760;6.632;2023-12-28T05:07:25;8.40;99.90
28530;DHT22;15737;49.760;6.632;2023-12-28T05:09:51;8.40;99.90
28530;DHT22;15737;49.760;6.632;2023-12-28T05:12:16;8.40;99.90
28530;DHT22;15737;49.760;6.632;2023-12-28T05:14:45;8.40;99.90
28530;DHT22;15737;49.760;6.632;2023-12-28T05:17:11;8.50;99.90
28530;DHT22;15737;49.760;6.632;2023-12-28T05:19:36;8.50;99.90
28530;DHT22;15737;49.760;6.632;2023-12-28T05:22:02;8.50;99.90
28530;DHT22;15737;49.760;6.632;2023-12-28T05:24:32;8.50;99.90
28530;DHT22;15737;49.760;6.632;2023-12-28T05:26:57;8.50;99.90
28530;DHT22;15737;49.760;6.632;2023-12-28T05:29:23;8.50;99.90
28530;DHT22;15737;49.760;6.632;2023-12-28T05:31:48;8.60;99.90
28530;DHT22;15737;49.760;6.632;2023-12-28T05:34:14;8.60;99.90
28530;DHT22;15737;49.760;6.632;2023-12-28T05:36:39;8.60;99.90
28530;DHT22;15737;49.760;6.632;2023-12-28T05:39:06;8.60;99.90
28530;DHT22;15737;49.760;6.632;2023-12-28T05:41:39;8.70;99.90
28530;DHT22;15737;49.760;6.632;2023-12-28T05:44:05;8.70;99.90
28530;DHT22;15737;49.760;6.632;2023-12-28T05:46:31;8.70;99.90
28530;DHT22;15737;49.760;6.632;2023-12-28T05:48:57;8.70;99.90
28530;DHT22;15737;49.760;6.632;2023-12-28T05:51:23;8.70;99.90
28530;DHT22;15737;49.760;6.632;2023-12-28T05:53:48;8.70;99.90
28530;DHT22;15737;49.760;6.632;2023-12-28T05:56:13;8.70;99.90
28530;DHT22;15737;49.760;6.632;2023-12-28T05:58:39;8.70;99.90
28530;DHT22;15737;49.760;6.632;2023-12-28T06:01:05;8.70;99.90
28530;DHT22;15737;49.760;6.632;2023-12-28T06:03:31;8.70;99.90
28530;DHT22;15737;49.760;6.632;2023-12-28T06:05:56;8.80;99.90
28530;DHT22;15737;49.760;6.632;2023-12-28T06:08:36;8.80;99.90
28530;DHT22;15737;49.760;6.632;2023-12-28T06:11:02;8.80;99.90
28530;DHT22;15737;49.760;6.632;2023-12-28T06:13:27;8.90;99.90
28530;DHT22;15737;49.760;6.632;2023-12-28T06:15:53;8.90;99.90
28530;DHT22;15737;49.760;6.632;2023-12-28T06:18:19;8.90;99.90
28530;DHT22;15737;49.760;6.632;2023-12-28T06:20:44;8.90;99.90
28530;DHT22;15737;49.760;6.632;2023-12-28T06:23:10;8.90;99.90
28530;DHT22;15737;49.760;6.632;2023-12-28T06:25:36;8.90;99.90
28530;DHT22;15737;49.760;6.632;2023-12-28T06:28:01;8.90;99.90
28530;DHT22;15737;49.760;6.632;2023-12-28T06:30:27;8.90;99.90
28530;DHT22;15737;49.760;6.632;2023-12-28T06:32:52;9.00;99.90
28530;DHT22;15737;49.760;6.632;2023-12-28T06:35:33;9.00;99.90
28530;DHT22;15737;49.760;6.632;2023-12-28T06:37:58;9.00;99.90
28530;DHT22;15737;49.760;6.632;2023-12-28T06:40:24;9.00;99.90
28530;DHT22;15737;49.760;6.632;2023-12-28T06:42:49;9.00;99.90
28530;DHT22;15737;49.760;6.632;2023-12-28T06:45:15;9.00;99.90
28530;DHT22;15737;49.760;6.632;2023-12-28T06:47:41;9.00;99.90
28530;DHT22;15737;49.760;6.632;2023-12-28T06:50:07;9.00;99.90
28530;DHT22;15737;49.760;6.632;2023-12-28T06:52:32;9.00;99.90
28530;DHT22;15737;49.760;6.632;2023-12-28T06:54:58;9.00;99.90
28530;DHT22;15737;49.760;6.632;2023-12-28T06:57:24;9.00;99.90
28530;DHT22;15737;49.760;6.632;2023-12-28T06:59:49;9.10;99.90
28530;DHT22;15737;49.760;6.632;2023-12-28T07:02:15;9.10;99.90
28530;DHT22;15737;49.760;6.632;2023-12-28T07:04:40;9.10;99.90
28530;DHT22;15737;49.760;6.632;2023-12-28T07:07:06;9.10;99.90
28530;DHT22;15737;49.760;6.632;2023-12-28T07:09:31;9.10;99.90
28530;DHT22;15737;49.760;6.632;2023-12-28T07:11:57;9.20;99.90
28530;DHT22;15737;49.760;6.632;2023-12-28T07:14:22;9.20;99.90
28530;DHT22;15737;49.760;6.632;2023-12-28T07:16:48;9.20;99.90
28530;DHT22;15737;49.760;6.632;2023-12-28T07:19:13;9.20;99.90
28530;DHT22;15737;49.760;6.632;2023-12-28T07:21:39;9.20;99.90
28530;DHT22;15737;49.760;6.632;2023-12-28T07:24:04;9.20;99.90
28530;DHT22;15737;49.760;6.632;2023-12-28T07:26:30;9.20;99.90
28530;DHT22;15737;49.760;6.632;2023-12-28T07:28:56;9.20;99.90
28530;DHT22;15737;49.760;6.632;2023-12-28T07:31:25;9.20;99.90
28530;DHT22;15737;49.760;6.632;2023-12-28T07:33:51;9.10;99.90
28530;DHT22;15737;49.760;6.632;2023-12-28T07:36:17;9.10;99.90
28530;DHT22;15737;49.760;6.632;2023-12-28T07:38:43;9.10;99.90
28530;DHT22;15737;49.760;6.632;2023-12-28T07:41:09;9.10;99.90
28530;DHT22;15737;49.760;6.632;2023-12-28T07:43:34;9.10;99.90
28530;DHT22;15737;49.760;6.632;2023-12-28T07:46:01;9.20;99.90
28530;DHT22;15737;49.760;6.632;2023-12-28T07:48:27;9.20;99.90
28530;DHT22;15737;49.760;6.632;2023-12-28T07:50:52;9.20;99.90
28530;DHT22;15737;49.760;6.632;2023-12-28T07:53:18;9.20;99.90
28530;DHT22;15737;49.760;6.632;2023-12-28T07:55:43;9.20;99.90
28530;DHT22;15737;49.760;6.632;2023-12-28T07:58:09;9.20;99.90
28530;DHT22;15737;49.760;6.632;2023-12-28T08:00:34;9.20;99.90
28530;DHT22;15737;49.760;6.632;2023-12-28T08:03:00;9.20;99.90
28530;DHT22;15737;49.760;6.632;2023-12-28T08:05:25;9.20;99.90
28530;DHT22;15737;49.760;6.632;2023-12-28T08:07:51;9.10;99.90
28530;DHT22;15737;49.760;6.632;2023-12-28T08:10:16;9.10;99.90
28530;DHT22;15737;49.760;6.632;2023-12-28T08:12:42;9.20;99.90
28530;DHT22;15737;49.760;6.632;2023-12-28T08:15:08;9.20;99.90
28530;DHT22;15737;49.760;6.632;2023-12-28T08:17:34;9.20;99.90
28530;DHT22;15737;49.760;6.632;2023-12-28T08:19:59;9.30;99.90
28530;DHT22;15737;49.760;6.632;2023-12-28T08:22:25;9.30;99.90
28530;DHT22;15737;49.760;6.632;2023-12-28T08:24:50;9.30;99.90
28530;DHT22;15737;49.760;6.632;2023-12-28T08:27:16;9.30;99.90
28530;DHT22;15737;49.760;6.632;2023-12-28T08:29:41;9.40;99.90
28530;DHT22;15737;49.760;6.632;2023-12-28T08:32:07;9.50;99.90
28530;DHT22;15737;49.760;6.632;2023-12-28T08:34:33;9.50;99.90
28530;DHT22;15737;49.760;6.632;2023-12-28T08:36:58;9.60;99.90
28530;DHT22;15737;49.760;6.632;2023-12-28T08:39:24;9.70;99.90
28530;DHT22;15737;49.760;6.632;2023-12-28T08:41:50;9.80;99.90
28530;DHT22;15737;49.760;6.632;2023-12-28T08:44:15;10.00;99.90
28530;DHT22;15737;49.760;6.632;2023-12-28T08:46:41;10.20;99.90
28530;DHT22;15737;49.760;6.632;2023-12-28T08:49:06;10.50;99.90
28530;DHT22;15737;49.760;6.632;2023-12-28T08:51:32;11.40;99.90
28530;DHT22;15737;49.760;6.632;2023-12-28T08:53:57;11.90;99.90
28530;DHT22;15737;49.760;6.632;2023-12-28T08:56:23;12.00;99.90
28530;DHT22;15737;49.760;6.632;2023-12-28T08:58:49;11.70;99.90
28530;DHT22;15737;49.760;6.632;2023-12-28T09:01:20;11.20;99.90
28530;DHT22;15737;49.760;6.632;2023-12-28T09:03:49;11.00;99.90
28530;DHT22;15737;49.760;6.632;2023-12-28T09:06:18;10.90;99.90
28530;DHT22;15737;49.760;6.632;2023-12-28T09:08:45;10.60;99.90
28530;DHT22;15737;49.760;6.632;2023-12-28T09:11:13;10.30;99.90
28530;DHT22;15737;49.760;6.632;2023-12-28T09:13:39;10.20;99.90
28530;DHT22;15737;49.760;6.632;2023-12-28T09:16:06;10.00;99.90
28530;DHT22;15737;49.760;6.632;2023-12-28T09:18:33;10.00;99.90
28530;DHT22;15737;49.760;6.632;2023-12-28T09:20:58;10.00;99.90
28530;DHT22;15737;49.760;6.632;2023-12-28T09:23:24;10.00;99.90
28530;DHT22;15737;49.760;6.632;2023-12-28T09:25:49;10.00;99.90
28530;DHT22;15737;49.760;6.632;2023-12-28T09:28:14;10.00;99.90
28530;DHT22;15737;49.760;6.632;2023-12-28T09:30:40;9.90;99.90
28530;DHT22;15737;49.760;6.632;2023-12-28T09:33:06;10.10;99.90
28530;DHT22;15737;49.760;6.632;2023-12-28T09:35:31;10.20;99.90
28530;DHT22;15737;49.760;6.632;2023-12-28T09:37:57;10.30;99.90
28530;DHT22;15737;49.760;6.632;2023-12-28T09:40:23;10.40;99.90
28530;DHT22;15737;49.760;6.632;2023-12-28T09:42:57;10.50;99.90
28530;DHT22;15737;49.760;6.632;2023-12-28T09:45:26;10.50;99.90
28530;DHT22;15737;49.760;6.632;2023-12-28T09:47:52;10.40;99.90
28530;DHT22;15737;49.760;6.632;2023-12-28T09:50:18;10.30;99.90
28530;DHT22;15737;49.760;6.632;2023-12-28T09:52:45;10.30;99.90
28530;DHT22;15737;49.760;6.632;2023-12-28T09:55:11;10.30;99.90
28530;DHT22;15737;49.760;6.632;2023-12-28T09:57:37;10.30;99.90
28530;DHT22;15737;49.760;6.632;2023-12-28T10:00:04;10.30;99.90
28530;DHT22;15737;49.760;6.632;2023-12-28T10:02:32;10.20;99.90
28530;DHT22;15737;49.760;6.632;2023-12-28T10:07:27;10.30;99.90
28530;DHT22;15737;49.760;6.632;2023-12-28T10:09:52;10.30;99.90
28530;DHT22;15737;49.760;6.632;2023-12-28T10:12:18;10.20;99.90
28530;DHT22;15737;49.760;6.632;2023-12-28T10:14:43;10.30;99.90
28530;DHT22;15737;49.760;6.632;2023-12-28T10:17:09;10.30;99.90
28530;DHT22;15737;49.760;6.632;2023-12-28T10:19:36;10.40;99.90
28530;DHT22;15737;49.760;6.632;2023-12-28T10:22:01;10.40;99.90
28530;DHT22;15737;49.760;6.632;2023-12-28T10:24:27;10.60;99.90
28530;DHT22;15737;49.760;6.632;2023-12-28T10:26:53;11.30;99.90
28530;DHT22;15737;49.760;6.632;2023-12-28T10:29:18;12.50;99.90
28530;DHT22;15737;49.760;6.632;2023-12-28T10:31:44;13.00;99.90
28530;DHT22;15737;49.760;6.632;2023-12-28T10:34:10;12.60;99.90
28530;DHT22;15737;49.760;6.632;2023-12-28T10:36:35;12.30;99.90
28530;DHT22;15737;49.760;6.632;2023-12-28T10:39:04;11.90;99.90
28530;DHT22;15737;49.760;6.632;2023-12-28T10:41:30;11.60;99.90
28530;DHT22;15737;49.760;6.632;2023-12-28T10:44:04;11.60;99.90
28530;DHT22;15737;49.760;6.632;2023-12-28T10:46:32;11.60;99.90
28530;DHT22;15737;49.760;6.632;2023-12-28T10:48:59;11.60;99.90
28530;DHT22;15737;49.760;6.632;2023-12-28T10:51:26;11.80;99.90
28530;DHT22;15737;49.760;6.632;2023-12-28T10:54:17;11.90;99.90
28530;DHT22;15737;49.760;6.632;2023-12-28T10:56:46;12.00;99.90
28530;DHT22;15737;49.760;6.632;2023-12-28T11:02:03;12.00;99.90
28530;DHT22;15737;49.760;6.632;2023-12-28T11:04:40;12.10;99.90
28530;DHT22;15737;49.760;6.632;2023-12-28T11:07:09;12.30;99.90
28530;DHT22;15737;49.760;6.632;2023-12-28T11:09:35;12.50;99.90
28530;DHT22;15737;49.760;6.632;2023-12-28T11:12:03;12.50;99.90
28530;DHT22;15737;49.760;6.632;2023-12-28T11:14:30;12.70;99.90
28530;DHT22;15737;49.760;6.632;2023-12-28T11:16:59;12.70;99.90
28530;DHT22;15737;49.760;6.632;2023-12-28T11:19:27;12.50;99.90
28530;DHT22;15737;49.760;6.632;2023-12-28T11:21:53;12.50;99.90
28530;DHT22;15737;49.760;6.632;2023-12-28T11:24:19;13.10;99.90
28530;DHT22;15737;49.760;6.632;2023-12-28T11:26:45;12.80;99.90
28530;DHT22;15737;49.760;6.632;2023-12-28T11:29:18;12.40;99.90
28530;DHT22;15737;49.760;6.632;2023-12-28T11:31:44;12.30;99.90
28530;DHT22;15737;49.760;6.632;2023-12-28T11:34:15;12.40;99.90
28530;DHT22;15737;49.760;6.632;2023-12-28T11:36:51;12.30;99.90
28530;DHT22;15737;49.760;6.632;2023-12-28T11:41:51;13.00;99.90
28530;DHT22;15737;49.760;6.632;2023-12-28T11:44:16;14.00;99.90
28530;DHT22;15737;49.760;6.632;2023-12-28T11:46:42;14.60;99.90
28530;DHT22;15737;49.760;6.632;2023-12-28T11:49:08;14.40;99.90
28530;DHT22;15737;49.760;6.632;2023-12-28T11:51:37;13.80;99.90
28530;DHT22;15737;49.760;6.632;2023-12-28T11:54:03;13.60;99.90
28530;DHT22;15737;49.760;6.632;2023-12-28T11:56:30;13.30;99.90
28530;DHT22;15737;49.760;6.632;2023-12-28T11:58:55;12.90;99.90
28530;DHT22;15737;49.760;6.632;2023-12-28T12:01:21;12.60;99.90
28530;DHT22;15737;49.760;6.632;2023-12-28T12:03:47;12.70;99.90
28530;DHT22;15737;49.760;6.632;2023-12-28T12:06:14;12.80;99.90
28530;DHT22;15737;49.760;6.632;2023-12-28T12:08:39;12.50;99.90
28530;DHT22;15737;49.760;6.632;2023-12-28T12:11:06;12.50;99.90
28530;DHT22;15737;49.760;6.632;2023-12-28T12:13:32;12.30;99.90
28530;DHT22;15737;49.760;6.632;2023-12-28T12:15:58;12.00;99.90
28530;DHT22;15737;49.760;6.632;2023-12-28T12:18:25;11.70;99.90
28530;DHT22;15737;49.760;6.632;2023-12-28T12:20:50;11.50;99.90
28530;DHT22;15737;49.760;6.632;2023-12-28T12:23:16;11.50;99.90
28530;DHT22;15737;49.760;6.632;2023-12-28T12:25:42;11.80;99.90
28530;DHT22;15737;49.760;6.632;2023-12-28T12:28:07;12.50;99.90
28530;DHT22;15737;49.760;6.632;2023-12-28T12:30:34;12.70;99.90
28530;DHT22;15737;49.760;6.632;2023-12-28T12:32:59;12.60;99.90
28530;DHT22;15737;49.760;6.632;2023-12-28T12:35:25;12.30;99.90
28530;DHT22;15737;49.760;6.632;2023-12-28T12:37:51;12.00;99.90
28530;DHT22;15737;49.760;6.632;2023-12-28T12:40:19;11.80;99.90
28530;DHT22;15737;49.760;6.632;2023-12-28T12:43:04;12.00;99.90
28530;DHT22;15737;49.760;6.632;2023-12-28T12:45:29;12.30;99.90
28530;DHT22;15737;49.760;6.632;2023-12-28T12:47:55;12.80;99.90
28530;DHT22;15737;49.760;6.632;2023-12-28T12:50:20;12.90;99.90
28530;DHT22;15737;49.760;6.632;2023-12-28T12:52:47;12.60;99.90
28530;DHT22;15737;49.760;6.632;2023-12-28T12:55:13;12.90;99.90
28530;DHT22;15737;49.760;6.632;2023-12-28T12:57:40;12.90;99.90
28530;DHT22;15737;49.760;6.632;2023-12-28T13:00:06;12.70;99.90
28530;DHT22;15737;49.760;6.632;2023-12-28T13:02:37;12.40;99.90
28530;DHT22;15737;49.760;6.632;2023-12-28T13:05:03;11.90;99.90
28530;DHT22;15737;49.760;6.632;2023-12-28T13:07:30;11.50;99.90
28530;DHT22;15737;49.760;6.632;2023-12-28T13:09:56;11.50;99.90
28530;DHT22;15737;49.760;6.632;2023-12-28T13:12:21;12.00;99.90
28530;DHT22;15737;49.760;6.632;2023-12-28T13:14:47;12.50;99.90
28530;DHT22;15737;49.760;6.632;2023-12-28T13:17:12;12.60;99.90
28530;DHT22;15737;49.760;6.632;2023-12-28T13:19:38;12.40;99.90
28530;DHT22;15737;49.760;6.632;2023-12-28T13:22:04;12.10;99.90
28530;DHT22;15737;49.760;6.632;2023-12-28T13:24:30;11.90;99.90
28530;DHT22;15737;49.760;6.632;2023-12-28T13:26:56;11.80;99.90
28530;DHT22;15737;49.760;6.632;2023-12-28T13:29:22;11.60;99.90
28530;DHT22;15737;49.760;6.632;2023-12-28T13:31:48;11.60;99.90
28530;DHT22;15737;49.760;6.632;2023-12-28T13:34:16;11.60;99.90
28530;DHT22;15737;49.760;6.632;2023-12-28T13:36:41;11.60;99.90
28530;DHT22;15737;49.760;6.632;2023-12-28T13:39:07;11.50;99.90
28530;DHT22;15737;49.760;6.632;2023-12-28T13:41:34;11.40;99.90
28530;DHT22;15737;49.760;6.632;2023-12-28T13:44:00;11.30;99.90
28530;DHT22;15737;49.760;6.632;2023-12-28T13:46:30;11.40;99.90
28530;DHT22;15737;49.760;6.632;2023-12-28T13:48:56;11.50;99.90
28530;DHT22;15737;49.760;6.632;2023-12-28T13:51:22;11.50;99.90
28530;DHT22;15737;49.760;6.632;2023-12-28T13:53:48;11.60;99.90
28530;DHT22;15737;49.760;6.632;2023-12-28T13:56:13;11.90;99.90
28530;DHT22;15737;49.760;6.632;2023-12-28T13:58:38;11.90;99.90
28530;DHT22;15737;49.760;6.632;2023-12-28T14:01:04;11.70;99.90
28530;DHT22;15737;49.760;6.632;2023-12-28T14:03:30;11.50;99.90
28530;DHT22;15737;49.760;6.632;2023-12-28T14:05:55;11.40;99.90
28530;DHT22;15737;49.760;6.632;2023-12-28T14:08:21;11.30;99.90
28530;DHT22;15737;49.760;6.632;2023-12-28T14:10:46;11.30;99.90
28530;DHT22;15737;49.760;6.632;2023-12-28T14:13:12;11.30;99.90
28530;DHT22;15737;49.760;6.632;2023-12-28T14:15:37;11.30;99.90
28530;DHT22;15737;49.760;6.632;2023-12-28T14:18:04;11.20;99.90
28530;DHT22;15737;49.760;6.632;2023-12-28T14:20:31;11.00;99.90
28530;DHT22;15737;49.760;6.632;2023-12-28T14:22:57;10.90;99.90
28530;DHT22;15737;49.760;6.632;2023-12-28T14:25:23;10.80;99.90
28530;DHT22;15737;49.760;6.632;2023-12-28T14:27:49;10.80;99.90
28530;DHT22;15737;49.760;6.632;2023-12-28T14:30:15;10.70;99.90
28530;DHT22;15737;49.760;6.632;2023-12-28T14:32:41;10.60;99.90
28530;DHT22;15737;49.760;6.632;2023-12-28T14:35:07;10.60;99.90
28530;DHT22;15737;49.760;6.632;2023-12-28T14:37:33;10.50;99.90
28530;DHT22;15737;49.760;6.632;2023-12-28T14:39:59;10.40;99.90
28530;DHT22;15737;49.760;6.632;2023-12-28T14:42:24;10.40;99.90
28530;DHT22;15737;49.760;6.632;2023-12-28T14:44:50;10.30;99.90
28530;DHT22;15737;49.760;6.632;2023-12-28T14:47:17;10.30;99.90
28530;DHT22;15737;49.760;6.632;2023-12-28T14:49:42;10.20;99.90
28530;DHT22;15737;49.760;6.632;2023-12-28T14:52:10;10.20;99.90
28530;DHT22;15737;49.760;6.632;2023-12-28T14:54:35;10.10;99.90
28530;DHT22;15737;49.760;6.632;2023-12-28T14:57:01;10.10;99.90
28530;DHT22;15737;49.760;6.632;2023-12-28T14:59:26;10.10;99.90
28530;DHT22;15737;49.760;6.632;2023-12-28T15:01:51;10.00;99.90
28530;DHT22;15737;49.760;6.632;2023-12-28T15:04:17;10.00;99.90
28530;DHT22;15737;49.760;6.632;2023-12-28T15:06:43;10.00;99.90
28530;DHT22;15737;49.760;6.632;2023-12-28T15:09:08;10.00;99.90
28530;DHT22;15737;49.760;6.632;2023-12-28T15:11:35;10.00;99.90
28530;DHT22;15737;49.760;6.632;2023-12-28T15:14:02;10.00;99.90
28530;DHT22;15737;49.760;6.632;2023-12-28T15:16:27;10.00;99.90
28530;DHT22;15737;49.760;6.632;2023-12-28T15:18:53;10.00;99.90
28530;DHT22;15737;49.760;6.632;2023-12-28T15:21:19;10.00;99.90
28530;DHT22;15737;49.760;6.632;2023-12-28T15:23:45;10.00;99.90
28530;DHT22;15737;49.760;6.632;2023-12-28T15:26:10;9.90;99.90
28530;DHT22;15737;49.760;6.632;2023-12-28T15:28:36;9.90;99.90
28530;DHT22;15737;49.760;6.632;2023-12-28T15:31:02;9.80;99.90
28530;DHT22;15737;49.760;6.632;2023-12-28T15:33:39;9.80;99.90
28530;DHT22;15737;49.760;6.632;2023-12-28T15:36:05;9.80;99.90
28530;DHT22;15737;49.760;6.632;2023-12-28T15:38:30;9.70;99.90
28530;DHT22;15737;49.760;6.632;2023-12-28T15:40:56;9.60;99.90
28530;DHT22;15737;49.760;6.632;2023-12-28T15:43:21;9.50;99.90
28530;DHT22;15737;49.760;6.632;2023-12-28T15:45:47;9.50;99.90
28530;DHT22;15737;49.760;6.632;2023-12-28T15:48:12;9.50;99.90
28530;DHT22;15737;49.760;6.632;2023-12-28T15:50:38;9.50;99.90
28530;DHT22;15737;49.760;6.632;2023-12-28T15:53:03;9.50;99.90